createdAt,value
2022-09-02T13:49:45.306Z,30.77
2022-09-02T13:52:54.849Z,28.85
2022-09-02T13:55:16.811Z,27.10
2022-09-02T13:57:53.648Z,27.00
2022-09-02T14:00:36.830Z,25.15
2022-09-02T14:03:09.371Z,26.27
2022-09-02T14:05:47.422Z,24.73
2022-09-02T14:08:31.565Z,24.20
2022-09-02T14:11:08.358Z,22.30
2022-09-02T14:13:50.124Z,22.33
2022-09-02T14:16:37.864Z,21.20
2022-09-02T14:19:18.818Z,20.65
2022-09-02T14:21:52.093Z,21.13
2022-09-02T14:24:31.155Z,21.17
2022-09-02T14:27:02.812Z,20.73
2022-09-02T14:29:34.396Z,20.20
2022-09-02T14:32:17.453Z,20.23
2022-09-02T14:34:50.277Z,19.25
2022-09-02T14:37:27.008Z,19.65
2022-09-02T14:40:02.890Z,19.02
2022-09-02T14:42:33.812Z,18.08
2022-09-02T14:45:07.630Z,17.27
2022-09-02T14:47:41.720Z,18.60
2022-09-02T14:50:20.891Z,17.38
2022-09-02T14:52:54.749Z,17.90
2022-09-02T14:56:02.604Z,17.23
2022-09-02T14:58:32.715Z,16.45
2022-09-02T15:01:04.682Z,16.45
2022-09-02T15:03:40.444Z,16.95
2022-09-02T15:06:14.979Z,16.70
2022-09-02T15:08:45.673Z,15.00
2022-09-02T15:11:21.220Z,15.20
2022-09-02T15:13:51.436Z,14.98
2022-09-02T15:16:22.417Z,15.57
2022-09-02T15:18:52.576Z,15.60
2022-09-02T15:21:23.237Z,15.27
2022-09-02T15:23:53.516Z,15.43
2022-09-02T15:26:23.758Z,15.02
2022-09-02T15:28:54.451Z,14.77
2022-09-02T15:31:24.910Z,13.57
2022-09-02T15:33:55.269Z,14.15
2022-09-02T15:36:27.723Z,15.25
2022-09-02T15:38:58.525Z,14.40
2022-09-02T15:41:29.594Z,14.00
2022-09-02T15:44:01.988Z,13.50
2022-09-02T15:46:34.539Z,13.65
2022-09-02T15:49:10.668Z,13.65
2022-09-02T15:51:42.163Z,12.90
2022-09-02T15:56:48.949Z,13.23
2022-09-02T15:59:23.249Z,13.93
2022-09-02T16:01:57.469Z,12.38
2022-09-02T16:04:29.517Z,13.05
2022-09-02T16:06:59.924Z,12.77
2022-09-02T16:09:31.388Z,12.68
2022-09-02T16:12:01.531Z,11.77
2022-09-02T16:14:31.672Z,12.30
2022-09-02T16:17:01.803Z,12.15
2022-09-02T16:19:32.182Z,12.55
2022-09-02T16:22:02.508Z,12.38
2022-09-02T16:24:32.613Z,11.70
2022-09-02T16:27:03.794Z,12.35
2022-09-02T16:29:35.173Z,11.50
2022-09-02T16:34:57.903Z,11.80
2022-09-02T16:37:28.094Z,11.75
2022-09-02T16:39:58.195Z,11.60
2022-09-02T16:42:28.488Z,11.38
2022-09-02T16:44:58.671Z,11.40
2022-09-02T16:47:29.293Z,10.77
2022-09-02T16:49:59.503Z,10.30
2022-09-02T16:52:29.727Z,11.57
2022-09-02T16:55:21.806Z,11.18
2022-09-02T16:57:51.963Z,11.27
2022-09-02T17:00:22.047Z,10.60
2022-09-02T17:02:52.376Z,11.88
2022-09-02T17:05:22.548Z,11.02
2022-09-02T17:07:54.245Z,10.18
2022-09-02T17:10:24.452Z,10.60
2022-09-02T17:12:57.468Z,10.98
2022-09-02T17:15:28.270Z,10.63
2022-09-02T17:17:58.900Z,10.80
2022-09-02T17:20:30.118Z,10.60
2022-09-02T17:23:19.197Z,11.02
2022-09-02T17:25:49.395Z,9.82
2022-09-02T17:28:19.498Z,10.65
2022-09-02T17:30:50.228Z,10.40
2022-09-02T17:33:20.515Z,9.70
2022-09-02T17:36:00.704Z,11.10
2022-09-02T17:38:30.912Z,10.00
2022-09-02T17:41:19.617Z,9.93
2022-09-02T17:43:49.840Z,10.18
2022-09-02T17:46:19.931Z,10.13
2022-09-02T17:49:15.195Z,10.70
2022-09-02T17:51:41.942Z,9.70
2022-09-02T17:54:13.831Z,11.65
2022-09-02T17:57:09.778Z,10.95
2022-09-02T18:00:10.430Z,12.23
2022-09-02T18:03:01.296Z,12.50
2022-09-02T18:05:57.066Z,15.93
2022-09-02T18:08:47.617Z,13.90
2022-09-02T18:11:20.648Z,16.13
2022-09-02T18:14:04.677Z,15.38
2022-09-02T18:16:44.329Z,16.70
2022-09-02T18:19:29.354Z,17.45
2022-09-02T18:22:00.770Z,16.85
2022-09-02T18:25:03.381Z,17.92
2022-09-02T18:27:39.279Z,17.83
2022-09-02T18:30:41.029Z,20.38
2022-09-02T18:33:32.203Z,21.95
2022-09-02T18:36:32.149Z,19.42
2022-09-02T18:39:14.690Z,21.17
2022-09-02T18:41:57.163Z,23.20
2022-09-02T18:44:55.619Z,22.10
2022-09-02T18:47:47.484Z,22.42
2022-09-02T18:50:49.561Z,21.17
2022-09-02T18:53:30.227Z,23.00
2022-09-02T18:56:07.605Z,22.15
2022-09-02T18:58:57.508Z,24.35
2022-09-02T19:01:29.459Z,23.15
2022-09-02T19:04:02.890Z,23.63
2022-09-02T19:06:38.630Z,24.15
2022-09-02T19:09:15.899Z,24.63
2022-09-02T19:11:46.113Z,23.92
2022-09-02T19:14:30.975Z,22.63
2022-09-02T19:17:01.292Z,24.48
2022-09-02T19:19:31.290Z,25.75
2022-09-02T19:22:13.514Z,25.15
2022-09-02T19:25:00.215Z,24.48
2022-09-02T19:27:37.876Z,25.08
2022-09-02T19:30:17.423Z,23.95
2022-09-02T19:32:53.835Z,25.77
2022-09-02T19:35:27.216Z,24.38
2022-09-02T19:37:58.450Z,25.38
2022-09-02T19:43:07.429Z,24.77
2022-09-02T19:45:39.566Z,24.85
2022-09-02T19:48:13.357Z,23.52
2022-09-02T19:50:46.692Z,27.88
2022-09-02T19:53:32.233Z,27.23
2022-09-02T19:56:03.530Z,26.15
2022-09-02T19:58:33.622Z,26.35
2022-09-02T20:01:06.500Z,26.77
2022-09-02T20:06:23.168Z,22.90
2022-09-02T20:08:53.932Z,26.63
2022-09-02T20:11:24.115Z,27.42
2022-09-02T20:13:55.257Z,25.15
2022-09-02T20:16:28.358Z,26.55
2022-09-02T20:18:59.518Z,26.42
2022-09-02T20:21:45.227Z,28.27
2022-09-02T20:24:22.888Z,25.50
2022-09-02T20:26:52.975Z,27.45
2022-09-02T20:29:44.276Z,26.95
2022-09-02T20:35:18.045Z,27.95
2022-09-02T20:37:54.691Z,28.48
2022-09-02T20:40:30.458Z,28.33
2022-09-02T20:43:11.066Z,27.70
2022-09-02T20:45:43.790Z,28.80
2022-09-02T20:48:30.235Z,28.83
2022-09-02T20:51:24.850Z,29.25
2022-09-02T20:54:01.163Z,28.85
2022-09-02T20:56:48.797Z,27.73
2022-09-02T20:59:53.114Z,29.85
2022-09-02T21:02:28.903Z,31.27
2022-09-02T21:05:08.272Z,29.88
2022-09-02T21:07:47.596Z,30.52
2022-09-02T21:10:31.881Z,29.55
2022-09-02T21:13:39.034Z,30.55
2022-09-02T21:16:19.643Z,30.17
2022-09-02T21:19:19.725Z,30.65
2022-09-02T21:21:56.988Z,28.98
2022-09-02T21:24:30.591Z,28.77
2022-09-02T21:27:09.407Z,29.10
2022-09-02T21:29:48.780Z,29.58
2022-09-02T21:32:43.706Z,30.38
2022-09-02T21:35:21.205Z,29.40
2022-09-02T21:38:00.805Z,29.25
2022-09-02T21:41:03.258Z,28.90
2022-09-02T21:43:39.021Z,31.23
2022-09-02T21:46:22.775Z,30.20
2022-09-02T21:49:05.938Z,27.73
2022-09-02T21:51:44.383Z,28.50
2022-09-02T21:54:29.626Z,28.80
2022-09-02T21:57:12.722Z,30.35
2022-09-02T21:59:42.926Z,28.27
2022-09-02T22:02:31.413Z,28.48
2022-09-02T22:05:26.263Z,27.95
2022-09-02T22:08:22.428Z,27.05
2022-09-02T22:11:26.461Z,25.98
2022-09-02T22:14:01.947Z,27.90
2022-09-02T22:16:47.918Z,26.33
2022-09-02T22:19:19.167Z,28.13
2022-09-02T22:21:57.382Z,27.08
2022-09-02T22:24:33.266Z,28.17
2022-09-02T22:27:13.777Z,27.52
2022-09-02T22:29:53.192Z,26.67
2022-09-02T22:32:28.766Z,26.45
2022-09-02T22:35:12.824Z,26.48
2022-09-02T22:38:01.875Z,26.48
2022-09-02T22:40:38.867Z,26.17
2022-09-02T22:43:14.810Z,27.45
2022-09-02T22:46:09.416Z,27.05
2022-09-02T22:49:03.134Z,26.95
2022-09-02T22:52:03.059Z,24.77
2022-09-02T22:54:34.226Z,25.83
2022-09-02T22:57:12.747Z,25.65
2022-09-02T23:00:01.671Z,24.95
2022-09-02T23:02:57.754Z,26.27
2022-09-02T23:05:54.194Z,28.27
2022-09-02T23:08:25.179Z,27.00
2022-09-02T23:11:13.773Z,25.70
2022-09-02T23:13:46.964Z,26.25
2022-09-02T23:16:39.390Z,25.80
2022-09-02T23:19:24.312Z,26.02
2022-09-02T23:22:07.202Z,27.83
2022-09-02T23:24:56.364Z,25.92
2022-09-02T23:27:53.909Z,24.88
2022-09-02T23:30:24.280Z,25.58
2022-09-02T23:33:08.000Z,31.85
2022-09-02T23:35:50.481Z,40.40
2022-09-02T23:38:49.226Z,32.17
2022-09-02T23:41:20.697Z,37.55
2022-09-02T23:43:51.768Z,34.97
2022-09-02T23:46:58.745Z,38.45
2022-09-02T23:49:57.825Z,34.88
2022-09-02T23:52:45.401Z,38.40
2022-09-02T23:55:40.511Z,37.38
2022-09-02T23:58:25.741Z,39.63
